Time;durP1;ratioP1;P1;durP2;ratioP2;P2;SDS_P1;SDS_P2;PMS_P1;PMS_P2;Temp;Humidity;BMP_temperature;BMP_pressure;BME280_temperature;BME280_humidity;BME280_pressure;Samples;Min_cycle;Max_cycle;Signal;HPM_P1;HPM_P2
2021/12/03 00:01:08;;;;;;;5.70;2.20;;;;;;;19.65;39.19;101054.50;7305013;19;130158;-78
2021/12/03 00:03:36;;;;;;;5.97;2.15;;;;;;;19.62;39.02;101057.78;7308242;19;131118;-78
2021/12/03 00:06:03;;;;;;;8.35;2.67;;;;;;;19.61;39.06;101053.31;7306332;19;132981;-79
2021/12/03 00:08:31;;;;;;;6.63;2.30;;;;;;;19.59;39.03;101066.59;7305199;19;130264;-78
2021/12/03 00:11:01;;;;;;;9.75;2.00;;;;;;;19.57;39.21;101057.69;7309181;19;131214;-78
2021/12/03 00:13:30;;;;;;;3.88;1.70;;;;;;;19.55;38.97;101070.13;7306625;19;130717;-79
2021/12/03 00:15:58;;;;;;;5.97;2.20;;;;;;;19.53;39.08;101067.63;7309787;19;131229;-78
2021/12/03 00:18:26;;;;;;;8.35;2.25;;;;;;;19.51;39.11;101065.06;7306765;19;129025;-78
2021/12/03 00:20:54;;;;;;;5.07;2.40;;;;;;;19.50;39.17;101054.22;7310693;19;130229;-79
2021/12/03 00:23:22;;;;;;;6.60;2.10;;;;;;;19.47;38.87;101061.13;7307600;19;131903;-78
2021/12/03 00:25:49;;;;;;;5.70;2.20;;;;;;;19.45;39.09;101054.13;7309500;19;131130;-79
2021/12/03 00:28:16;;;;;;;5.80;2.22;;;;;;;19.42;39.26;101055.47;7308514;19;130122;-78
2021/12/03 00:30:43;;;;;;;6.55;2.30;;;;;;;19.42;39.37;101049.09;7305609;19;130858;-78
2021/12/03 00:33:10;;;;;;;6.20;2.60;;;;;;;19.40;38.89;101040.16;7311486;19;131930;-78
2021/12/03 00:35:37;;;;;;;8.55;2.10;;;;;;;19.40;39.10;101042.94;7305273;19;131245;-79
2021/12/03 00:38:04;;;;;;;4.40;2.10;;;;;;;19.37;39.33;101047.91;7307729;19;129136;-78
2021/12/03 00:40:33;;;;;;;5.85;2.00;;;;;;;19.37;39.10;101045.13;7304238;19;130126;-78
2021/12/03 00:43:01;;;;;;;7.15;2.25;;;;;;;19.33;39.09;101049.47;7311540;19;131627;-78
2021/12/03 00:45:30;;;;;;;4.75;2.00;;;;;;;19.33;39.19;101056.97;7307971;19;130841;-79
2021/12/03 00:47:57;;;;;;;5.45;2.15;;;;;;;19.31;38.92;101062.78;7305732;19;130570;-78
2021/12/03 00:50:25;;;;;;;6.35;2.08;;;;;;;19.30;39.07;101069.41;7309882;19;128980;-78
2021/12/03 00:52:52;;;;;;;6.57;2.20;;;;;;;19.29;38.92;101066.88;7309820;19;131188;-78
2021/12/03 00:55:22;;;;;;;5.00;1.85;;;;;;;19.27;39.13;101075.44;7316992;19;131379;-79
2021/12/03 00:57:48;;;;;;;4.30;2.03;;;;;;;19.26;38.99;101070.97;7311251;19;129727;-78
2021/12/03 01:00:25;;;;;;;4.18;1.90;;;;;;;19.24;38.79;101081.47;7312366;19;128942;-79
2021/12/03 01:02:54;;;;;;;4.53;2.00;;;;;;;19.22;38.80;101078.09;7305843;19;131506;-78
2021/12/03 01:05:21;;;;;;;7.28;2.38;;;;;;;19.22;38.83;101083.66;7307562;19;131175;-80
2021/12/03 01:07:48;;;;;;;4.57;2.03;;;;;;;19.20;38.95;101078.34;7308449;19;130690;-79
2021/12/03 01:10:16;;;;;;;3.95;1.80;;;;;;;19.19;39.12;101084.97;7305342;19;130968;-78
2021/12/03 01:12:43;;;;;;;5.90;2.03;;;;;;;19.18;38.89;101076.91;7308026;19;131397;-78
2021/12/03 01:15:15;;;;;;;4.72;2.15;;;;;;;19.18;38.90;101082.44;7304022;19;133562;-79
2021/12/03 01:17:42;;;;;;;5.78;2.10;;;;;;;19.15;39.13;101069.88;7308972;19;129222;-78
2021/12/03 01:20:11;;;;;;;4.93;2.05;;;;;;;19.16;39.14;101087.41;7306137;19;130345;-78
2021/12/03 01:22:38;;;;;;;3.53;1.98;;;;;;;19.12;39.22;101072.31;7306467;19;132045;-78
2021/12/03 01:25:08;;;;;;;5.22;1.92;;;;;;;19.12;39.27;101078.72;7309002;19;132636;-79
2021/12/03 01:27:34;;;;;;;3.90;2.20;;;;;;;19.10;38.83;101074.50;7304295;19;130139;-78
2021/12/03 01:30:04;;;;;;;3.83;1.80;;;;;;;19.10;38.88;101082.81;7308425;19;129111;-78
2021/12/03 01:32:30;;;;;;;5.95;2.15;;;;;;;19.07;39.02;101089.69;7302149;19;132623;-79
2021/12/03 01:34:57;;;;;;;6.22;1.88;;;;;;;19.06;39.05;101091.66;7308896;19;132529;-79
2021/12/03 01:37:24;;;;;;;5.05;2.05;;;;;;;19.06;39.11;101082.47;7302917;19;130605;-78
2021/12/03 01:39:51;;;;;;;3.72;1.90;;;;;;;19.04;38.86;101088.28;7305794;19;131069;-79
2021/12/03 01:42:18;;;;;;;4.60;2.17;;;;;;;19.04;38.72;101079.97;7304914;19;131351;-79
2021/12/03 01:44:45;;;;;;;5.13;1.60;;;;;;;19.02;39.05;101084.91;7304167;19;132328;-79
2021/12/03 01:47:12;;;;;;;4.40;1.73;;;;;;;19.01;38.73;101083.22;7306471;19;129691;-79
2021/12/03 01:49:39;;;;;;;3.80;1.80;;;;;;;19.00;38.87;101075.97;7304580;19;129824;-79
2021/12/03 01:52:06;;;;;;;6.60;2.00;;;;;;;18.99;39.08;101076.22;7307720;19;130539;-79
2021/12/03 01:54:33;;;;;;;6.53;1.90;;;;;;;18.98;38.90;101069.00;7302713;19;132345;-79
2021/12/03 01:57:00;;;;;;;3.90;1.70;;;;;;;18.97;38.96;101075.63;7307138;19;129709;-80
2021/12/03 01:59:27;;;;;;;5.18;2.10;;;;;;;18.95;38.77;101061.16;7306451;19;130269;-80
2021/12/03 02:01:54;;;;;;;3.13;1.70;;;;;;;18.94;38.76;101060.34;7304545;19;131279;-79
2021/12/03 02:04:20;;;;;;;2.45;1.80;;;;;;;18.92;38.85;101059.75;7307265;19;129682;-80
2021/12/03 02:06:47;;;;;;;4.53;1.83;;;;;;;18.91;39.04;101063.59;7303027;19;130940;-79
2021/12/03 02:09:14;;;;;;;4.90;1.90;;;;;;;18.89;38.77;101063.00;7305522;19;132101;-79
2021/12/03 02:11:41;;;;;;;3.97;2.00;;;;;;;18.89;38.69;101061.03;7302075;19;131289;-78
2021/12/03 02:14:08;;;;;;;4.63;1.98;;;;;;;18.88;39.02;101066.84;7306410;19;131060;-79
2021/12/03 02:16:35;;;;;;;3.25;1.80;;;;;;;18.88;38.83;101064.06;7302675;19;132893;-80
2021/12/03 02:19:01;;;;;;;2.78;1.70;;;;;;;18.86;38.95;101071.78;7305702;19;129077;-78
2021/12/03 02:21:28;;;;;;;5.50;1.60;;;;;;;18.86;38.96;101074.56;7305192;19;131592;-80
2021/12/03 02:23:56;;;;;;;2.70;1.58;;;;;;;18.85;39.07;101068.19;7307060;19;131395;-78
2021/12/03 02:26:23;;;;;;;3.53;1.48;;;;;;;18.84;38.75;101071.19;7308110;19;130292;-79
2021/12/03 02:28:51;;;;;;;4.13;1.58;;;;;;;18.83;38.92;101055.66;7301444;19;129884;-78
2021/12/03 02:31:21;;;;;;;4.28;1.88;;;;;;;18.82;38.60;101048.44;7306119;19;133210;-78
2021/12/03 02:33:49;;;;;;;4.55;2.33;;;;;;;18.81;39.06;101055.06;7302783;19;130889;-78
2021/12/03 02:36:16;;;;;;;3.58;2.22;;;;;;;18.80;38.53;101053.38;7303044;19;130606;-78
2021/12/03 02:38:44;;;;;;;3.50;1.50;;;;;;;18.79;38.84;101043.38;7306534;19;130709;-79
2021/12/03 02:41:12;;;;;;;4.05;1.60;;;;;;;18.77;38.69;101061.09;7304246;19;130808;-79
2021/12/03 02:43:39;;;;;;;3.08;1.50;;;;;;;18.76;38.88;101064.94;7306914;19;131195;-79
2021/12/03 02:46:06;;;;;;;4.22;2.03;;;;;;;18.75;38.87;101068.81;7302458;19;130224;-78
2021/12/03 02:48:35;;;;;;;4.88;2.15;;;;;;;18.75;38.82;101079.88;7305347;19;130016;-78
2021/12/03 02:51:04;;;;;;;5.15;2.10;;;;;;;18.74;38.66;101077.38;7301279;19;133331;-78
2021/12/03 02:53:31;;;;;;;3.33;1.75;;;;;;;18.74;38.95;101071.81;7301639;19;131251;-78
2021/12/03 02:55:58;;;;;;;4.22;1.95;;;;;;;18.72;38.67;101069.28;7304135;19;129927;-79
2021/12/03 02:58:24;;;;;;;4.05;1.50;;;;;;;18.71;38.52;101067.59;7300202;19;129050;-78
2021/12/03 03:00:53;;;;;;;3.35;1.73;;;;;;;18.70;38.53;101071.47;7304546;19;131992;-78
2021/12/03 03:03:20;;;;;;;4.97;2.05;;;;;;;18.70;38.44;101062.31;7298885;19;131364;-79
2021/12/03 03:05:55;;;;;;;3.03;1.50;;;;;;;18.69;38.86;101055.94;7303903;19;129615;-79
2021/12/03 03:08:23;;;;;;;4.70;1.85;;;;;;;18.69;38.86;101066.16;7302188;19;130815;-79
2021/12/03 03:10:52;;;;;;;3.22;1.63;;;;;;;18.67;38.71;101063.66;7302020;19;131377;-77
2021/12/03 03:13:19;;;;;;;3.63;1.58;;;;;;;18.66;38.80;101055.56;7302787;19;129902;-78
2021/12/03 03:15:46;;;;;;;3.50;1.90;;;;;;;18.65;38.67;101063.03;7299891;19;130151;-78
2021/12/03 03:18:17;;;;;;;3.35;1.70;;;;;;;18.65;38.46;101056.63;7304260;19;131811;-78
2021/12/03 03:20:46;;;;;;;4.43;1.73;;;;;;;18.64;38.79;101054.97;7302552;19;131255;-78
2021/12/03 03:23:13;;;;;;;4.18;1.70;;;;;;;18.63;38.78;101054.13;7306239;19;132354;-78
2021/12/03 03:25:41;;;;;;;2.58;1.40;;;;;;;18.62;38.59;101046.88;7303642;19;130733;-78
2021/12/03 03:28:09;;;;;;;3.35;1.58;;;;;;;18.60;38.81;101044.38;7300998;19;130863;-78
2021/12/03 03:30:39;;;;;;;3.88;1.60;;;;;;;18.61;38.84;101056.28;7304915;19;131557;-78
2021/12/03 03:33:06;;;;;;;3.45;1.52;;;;;;;18.58;38.70;101045.72;7300354;19;132500;-78
2021/12/03 03:35:33;;;;;;;3.53;1.42;;;;;;;18.57;38.44;101053.16;7307184;19;130187;-78
2021/12/03 03:38:01;;;;;;;5.05;1.73;;;;;;;18.57;38.82;101061.47;7299972;19;130597;-77
2021/12/03 03:40:28;;;;;;;2.70;1.40;;;;;;;18.57;38.66;101055.09;7302454;19;131582;-78
2021/12/03 03:42:58;;;;;;;3.40;1.67;;;;;;;18.56;38.67;101053.41;7300424;19;131758;-78
2021/12/03 03:45:26;;;;;;;3.28;1.50;;;;;;;18.55;38.50;101046.19;7301782;19;130850;-78
2021/12/03 03:47:53;;;;;;;4.03;1.83;;;;;;;18.54;38.66;101044.50;7305279;19;131481;-78
2021/12/03 03:50:21;;;;;;;4.70;1.70;;;;;;;18.54;38.59;101047.28;7301102;19;131663;-78
2021/12/03 03:52:51;;;;;;;2.75;1.48;;;;;;;18.52;38.59;101043.91;7302742;19;131564;-78
2021/12/03 03:55:18;;;;;;;6.00;1.45;;;;;;;18.51;38.55;101039.44;7300574;19;130130;-78
2021/12/03 03:57:47;;;;;;;4.78;2.08;;;;;;;18.50;38.35;101046.06;7300791;19;130156;-78
2021/12/03 04:00:17;;;;;;;2.72;1.58;;;;;;;18.51;38.50;101050.53;7299570;19;132004;-78
2021/12/03 04:02:44;;;;;;;2.40;1.27;;;;;;;18.50;38.40;101040.53;7302217;19;131146;-78
2021/12/03 04:05:12;;;;;;;3.20;1.50;;;;;;;18.49;38.39;101041.59;7304995;19;129122;-78
2021/12/03 04:07:39;;;;;;;3.83;1.30;;;;;;;18.49;38.56;101058.22;7300794;19;130261;-78
2021/12/03 04:10:07;;;;;;;3.65;1.40;;;;;;;18.48;38.34;101043.53;7302941;19;131367;-78
2021/12/03 04:12:35;;;;;;;4.45;1.38;;;;;;;18.47;38.57;101039.09;7304346;19;131877;-77
2021/12/03 04:15:03;;;;;;;3.90;1.83;;;;;;;18.45;38.62;101039.34;7311221;19;130464;-78
2021/12/03 04:17:30;;;;;;;3.38;1.75;;;;;;;18.45;38.16;101030.19;7305957;19;130815;-78
2021/12/03 04:19:56;;;;;;;4.28;1.90;;;;;;;18.45;38.31;101030.19;7307346;19;131206;-78
2021/12/03 04:22:24;;;;;;;4.22;1.63;;;;;;;18.44;38.46;101023.81;7311639;19;134249;-78
2021/12/03 04:24:53;;;;;;;4.72;1.55;;;;;;;18.42;38.36;101028.75;7307375;19;130314;-78
2021/12/03 04:27:20;;;;;;;4.10;1.60;;;;;;;18.42;38.46;101020.44;7314567;19;131472;-78
2021/12/03 04:29:47;;;;;;;3.60;1.42;;;;;;;18.41;38.59;101024.28;7305315;19;131730;-78
2021/12/03 04:32:14;;;;;;;3.13;1.55;;;;;;;18.41;38.45;101017.88;7310404;19;130484;-79
2021/12/03 04:34:41;;;;;;;4.53;1.60;;;;;;;18.41;38.32;101020.66;7307825;19;131071;-80
2021/12/03 04:37:08;;;;;;;2.83;1.70;;;;;;;18.39;38.54;101022.81;7300769;19;129044;-80
2021/12/03 04:39:35;;;;;;;4.32;1.38;;;;;;;18.39;38.16;101020.03;7310260;19;131500;-78
2021/12/03 04:42:02;;;;;;;4.10;1.65;;;;;;;18.37;38.19;101020.28;7307523;19;132839;-79
2021/12/03 04:44:28;;;;;;;4.07;1.60;;;;;;;18.36;38.47;101021.34;7307254;19;130174;-79
2021/12/03 04:46:55;;;;;;;3.65;1.60;;;;;;;18.37;38.24;101019.44;7306137;19;129261;-78
2021/12/03 04:49:22;;;;;;;3.63;1.58;;;;;;;18.37;38.36;101022.22;7309697;19;135200;-80
2021/12/03 04:51:49;;;;;;;3.20;1.42;;;;;;;18.35;38.03;101027.97;7306009;19;131709;-79
2021/12/03 04:54:15;;;;;;;5.70;1.65;;;;;;;18.34;38.45;101025.47;7308634;19;131224;-79
2021/12/03 04:56:42;;;;;;;2.35;1.38;;;;;;;18.34;38.41;101031.00;7307330;19;130389;-80
2021/12/03 04:59:09;;;;;;;3.38;1.60;;;;;;;18.33;38.08;101037.63;7307543;19;131272;-78
2021/12/03 05:01:37;;;;;;;3.17;1.73;;;;;;;18.32;38.48;101039.56;7310912;19;135100;-78
2021/12/03 05:04:05;;;;;;;3.88;1.40;;;;;;;18.32;38.01;101034.03;7303332;19;129353;-80
2021/12/03 05:06:52;;;;;;;3.20;1.33;;;;;;;18.34;38.08;101031.00;7308701;19;131257;-80
2021/12/03 05:09:19;;;;;;;2.53;1.20;;;;;;;18.31;38.31;101018.47;7305075;19;132133;-80
2021/12/03 05:11:46;;;;;;;2.72;1.25;;;;;;;18.32;38.40;101017.41;7306966;19;131221;-79
2021/12/03 05:14:13;;;;;;;3.88;1.55;;;;;;;18.31;38.10;100999.09;7308222;19;130969;-80
2021/12/03 05:16:40;;;;;;;2.60;1.20;;;;;;;18.31;38.28;101004.63;7305043;19;129252;-79
2021/12/03 05:19:07;;;;;;;2.97;1.30;;;;;;;18.30;38.35;101009.31;7309158;19;130098;-78
2021/12/03 05:21:33;;;;;;;4.05;1.63;;;;;;;18.30;38.28;101001.00;7301496;19;132248;-78
2021/12/03 05:24:00;;;;;;;4.95;1.55;;;;;;;18.30;38.17;100998.25;7307352;19;130881;-79
2021/12/03 05:26:27;;;;;;;3.70;1.42;;;;;;;18.29;38.36;100985.47;7303294;19;130905;-79
2021/12/03 05:28:54;;;;;;;3.38;1.52;;;;;;;18.30;38.17;100995.47;7304780;19;131758;-80
2021/12/03 05:31:20;;;;;;;4.30;1.75;;;;;;;18.30;37.93;100992.69;7304634;19;132485;-77
2021/12/03 05:33:47;;;;;;;3.13;1.48;;;;;;;18.30;38.23;101000.19;7306194;19;130311;-79
2021/12/03 05:36:14;;;;;;;3.45;1.52;;;;;;;18.31;38.04;101007.41;7308883;19;128973;-78
2021/12/03 05:38:41;;;;;;;5.45;1.55;;;;;;;18.30;38.16;101000.19;7303149;19;132729;-79
2021/12/03 05:41:27;;;;;;;5.37;1.63;;;;;;;18.29;37.79;101004.84;7308546;19;133179;-80
2021/12/03 05:43:54;;;;;;;4.57;1.55;;;;;;;18.27;37.64;101003.44;7304697;19;131103;-79
2021/12/03 05:46:21;;;;;;;7.43;1.70;;;;;;;18.25;37.47;100998.13;7306871;19;130227;-77
2021/12/03 05:48:48;;;;;;;4.53;1.42;;;;;;;18.24;37.46;101002.00;7303174;19;131131;-78
2021/12/03 05:51:17;;;;;;;3.40;1.55;;;;;;;18.25;37.59;101008.34;7306041;19;131708;-79
2021/12/03 05:53:44;;;;;;;4.38;1.40;;;;;;;18.24;37.73;101001.13;7305371;19;129313;-79
2021/12/03 05:56:11;;;;;;;4.93;1.70;;;;;;;18.23;37.68;101003.06;7303036;19;130238;-77
2021/12/03 05:58:38;;;;;;;6.10;1.90;;;;;;;18.23;37.32;101003.06;7304252;19;132879;-77
2021/12/03 06:01:04;;;;;;;7.32;2.00;;;;;;;18.23;37.44;100997.53;7301382;19;132098;-77
2021/12/03 06:03:31;;;;;;;7.35;1.63;;;;;;;18.23;37.67;101004.97;7306705;19;129986;-79
2021/12/03 06:05:58;;;;;;;3.70;1.73;;;;;;;18.22;37.33;101006.94;7302260;19;129779;-77
2021/12/03 06:08:25;;;;;;;4.38;1.63;;;;;;;18.22;37.50;101011.59;7304328;19;131173;-77
2021/12/03 06:10:52;;;;;;;3.95;1.50;;;;;;;18.21;37.71;101002.47;7295197;19;132635;-78
2021/12/03 06:13:18;;;;;;;5.10;1.63;;;;;;;18.20;37.61;100994.41;7289738;19;129510;-78
2021/12/03 06:15:45;;;;;;;4.95;1.38;;;;;;;18.20;37.50;100994.41;7294653;19;129484;-77
2021/12/03 06:18:12;;;;;;;3.85;1.67;;;;;;;18.19;37.71;100995.50;7295776;19;132471;-78
2021/12/03 06:20:39;;;;;;;3.03;1.40;;;;;;;18.19;37.40;100995.50;7301863;19;131712;-77
2021/12/03 06:23:06;;;;;;;5.40;1.80;;;;;;;18.18;37.81;100986.31;7300118;19;131343;-82
2021/12/03 06:25:33;;;;;;;4.35;1.58;;;;;;;18.18;37.38;100991.88;7301748;19;131177;-79
2021/12/03 06:27:59;;;;;;;4.35;1.70;;;;;;;18.17;37.44;100990.19;7301390;19;132375;-80
2021/12/03 06:30:27;;;;;;;2.28;1.13;;;;;;;18.17;37.74;100987.41;7304025;19;131286;-81
2021/12/03 06:32:54;;;;;;;3.90;1.33;;;;;;;18.17;37.70;100989.34;7305840;19;130108;-79
2021/12/03 06:35:22;;;;;;;6.22;1.40;;;;;;;18.15;37.59;100993.19;7302864;19;129591;-81
2021/12/03 06:37:50;;;;;;;5.15;1.58;;;;;;;18.14;37.29;100994.28;7304145;19;131101;-80
2021/12/03 06:40:20;;;;;;;5.22;1.67;;;;;;;18.14;37.33;100985.97;7300984;19;131601;-81
2021/12/03 06:42:47;;;;;;;8.80;2.40;;;;;;;18.15;37.31;100992.38;7305780;19;129138;-81
2021/12/03 06:45:14;;;;;;;3.88;1.65;;;;;;;18.14;37.45;100993.44;7301761;19;130398;-80
2021/12/03 06:47:41;;;;;;;6.82;1.75;;;;;;;18.14;37.51;100985.97;7305381;19;132435;-79
2021/12/03 06:50:12;;;;;;;3.55;1.45;;;;;;;18.13;37.50;100995.38;7303322;19;132431;-80
2021/12/03 06:52:41;;;;;;;3.30;1.27;;;;;;;18.14;37.44;100990.69;7302456;19;129163;-80
2021/12/03 06:55:10;;;;;;;6.47;1.65;;;;;;;18.13;37.60;100989.81;7306128;19;130579;-80
2021/12/03 06:57:37;;;;;;;7.45;1.58;;;;;;;18.13;37.15;100998.13;7301516;19;131713;-79
2021/12/03 07:00:05;;;;;;;5.18;1.52;;;;;;;18.13;37.49;100992.59;7306723;19;131994;-81
2021/12/03 07:02:32;;;;;;;5.53;1.83;;;;;;;18.13;37.44;100989.00;7303534;19;129319;-81
2021/12/03 07:04:59;;;;;;;3.75;1.50;;;;;;;18.12;37.48;100979.00;7304573;19;129352;-79
2021/12/03 07:07:26;;;;;;;4.07;1.48;;;;;;;18.12;37.24;100982.59;7301965;19;130059;-79
2021/12/03 07:09:56;;;;;;;4.75;1.40;;;;;;;18.11;37.30;100980.09;7305522;19;130347;-80
2021/12/03 07:12:23;;;;;;;5.43;1.63;;;;;;;18.12;37.50;100976.22;7303970;19;130333;-79
2021/12/03 07:14:49;;;;;;;4.78;1.67;;;;;;;18.11;37.71;100974.53;7303585;19;131153;-79
2021/12/03 07:17:16;;;;;;;5.75;1.75;;;;;;;18.10;37.51;100970.91;7305552;19;134070;-79
2021/12/03 07:19:43;;;;;;;6.85;1.63;;;;;;;18.10;37.49;100967.31;7300588;19;131701;-78
2021/12/03 07:22:10;;;;;;;5.00;1.63;;;;;;;18.09;37.66;100971.16;7305188;19;130382;-79
2021/12/03 07:24:37;;;;;;;3.45;1.25;;;;;;;18.09;37.63;100971.16;7303215;19;129813;-80
2021/12/03 07:27:05;;;;;;;3.53;1.55;;;;;;;18.08;37.41;100970.34;7305300;19;131244;-80
2021/12/03 07:29:32;;;;;;;5.80;1.70;;;;;;;18.07;37.62;100976.97;7300547;19;131609;-80
2021/12/03 07:31:59;;;;;;;3.80;1.52;;;;;;;18.07;37.42;100976.09;7303770;19;130613;-80
2021/12/03 07:34:25;;;;;;;4.55;1.70;;;;;;;18.05;37.56;100981.88;7303759;19;130484;-80
2021/12/03 07:36:52;;;;;;;3.67;1.35;;;;;;;18.06;37.46;100977.19;7299713;19;130551;-79
2021/12/03 07:39:19;;;;;;;4.63;1.70;;;;;;;18.05;37.56;100987.44;7305439;19;131578;-80
2021/12/03 07:41:46;;;;;;;5.85;1.60;;;;;;;18.04;37.36;100973.81;7300190;19;130255;-80
2021/12/03 07:44:12;;;;;;;4.68;1.50;;;;;;;18.04;37.57;100976.56;7304786;19;129174;-79
2021/12/03 07:46:39;;;;;;;6.65;1.98;;;;;;;18.04;37.50;100969.13;7304462;19;131866;-79
2021/12/03 07:49:06;;;;;;;4.78;1.60;;;;;;;18.03;37.46;100964.69;7311115;19;131432;-79
2021/12/03 07:51:36;;;;;;;3.58;1.50;;;;;;;18.03;37.50;100961.09;7312239;19;130847;-80
2021/12/03 07:54:03;;;;;;;3.67;1.30;;;;;;;18.02;37.44;100960.22;7305654;19;129779;-80
2021/12/03 07:56:30;;;;;;;6.80;1.50;;;;;;;18.02;37.49;100954.69;7311616;19;134531;-79
2021/12/03 07:58:57;;;;;;;4.22;1.67;;;;;;;18.02;37.59;100953.84;7306890;19;131498;-80
2021/12/03 08:01:24;;;;;;;3.55;1.38;;;;;;;18.02;37.68;100949.16;7310708;19;132388;-80
2021/12/03 08:03:52;;;;;;;6.22;1.50;;;;;;;18.02;37.46;100951.91;7306822;19;130166;-80
2021/12/03 08:06:18;;;;;;;5.65;1.63;;;;;;;18.02;37.67;100951.91;7308694;19;131370;-80
2021/12/03 08:08:45;;;;;;;3.85;1.63;;;;;;;18.02;37.41;100940.00;7310502;19;131056;-80
2021/12/03 08:11:12;;;;;;;4.15;1.40;;;;;;;18.02;37.32;100937.25;7308783;19;130182;-81
2021/12/03 08:13:39;;;;;;;4.70;1.50;;;;;;;18.02;37.50;100943.63;7311740;19;130720;-79
2021/12/03 08:16:06;;;;;;;4.60;1.77;;;;;;;18.02;37.41;100949.16;7311102;19;132601;-80
2021/12/03 08:18:33;;;;;;;5.80;1.85;;;;;;;18.01;37.58;100941.94;7309554;19;134751;-79
2021/12/03 08:21:03;;;;;;;5.32;1.75;;;;;;;18.01;37.43;100941.94;7304694;19;129475;-80
2021/12/03 08:23:29;;;;;;;5.30;1.33;;;;;;;18.02;37.34;100943.63;7310796;19;130486;-80
2021/12/03 08:25:56;;;;;;;5.07;1.60;;;;;;;18.00;37.52;100937.47;7315910;19;133344;-79
2021/12/03 08:28:23;;;;;;;3.95;1.80;;;;;;;18.00;37.23;100941.09;7316314;19;131301;-83
2021/12/03 08:30:50;;;;;;;3.47;1.42;;;;;;;18.01;37.31;100941.94;7318487;19;130867;-81
2021/12/03 08:33:17;;;;;;;7.53;1.70;;;;;;;18.05;37.35;100937.59;7311251;19;130965;-82
2021/12/03 08:35:44;;;;;;;6.10;1.83;;;;;;;18.09;36.95;100933.25;7313566;19;131093;-81
2021/12/03 08:38:11;;;;;;;7.32;2.05;;;;;;;18.19;36.69;100938.19;7306841;19;134270;-79
2021/12/03 08:40:58;;;;;;;4.93;1.80;;;;;;;18.35;36.68;100944.88;7310912;19;129505;-81
2021/12/03 08:43:25;;;;;;;4.07;1.42;;;;;;;18.50;36.08;100943.56;7308944;19;129136;-80
2021/12/03 08:45:54;;;;;;;5.13;1.70;;;;;;;18.63;36.04;100948.00;7309148;19;131527;-79
2021/12/03 08:48:23;;;;;;;6.90;2.17;;;;;;;18.72;36.09;100947.34;7317567;19;132919;-81
2021/12/03 08:56:06;;;;;;;5.75;1.63;;;;;;;18.90;35.55;100929.66;7314067;19;131544;-81
2021/12/03 08:58:33;;;;;;;8.10;1.80;;;;;;;18.93;35.56;100922.81;7314345;19;133339;-81
2021/12/03 09:01:00;;;;;;;8.68;2.20;;;;;;;18.96;35.82;100922.28;7314391;19;129103;-80
2021/12/03 09:03:27;;;;;;;8.55;1.95;;;;;;;18.97;35.32;100925.91;7317211;19;133426;-81
2021/12/03 09:05:54;;;;;;;5.10;1.60;;;;;;;18.96;35.72;100921.47;7313058;19;134815;-80
2021/12/03 09:08:21;;;;;;;6.55;1.95;;;;;;;18.94;35.68;100921.72;7315613;19;131426;-80
2021/12/03 09:10:47;;;;;;;7.70;1.77;;;;;;;;;;7316255;19;129091;-79
2021/12/03 09:13:14;;;;;;;7.40;1.73;;;;;;;18.90;35.50;100920.53;7309404;19;132716;-81
2021/12/03 09:15:51;;;;;;;7.93;1.77;;;;;;;18.90;35.17;100921.34;7313073;19;132394;-81
2021/12/03 09:18:26;;;;;;;5.35;1.92;;;;;;;18.87;35.41;100921.88;7312247;19;131431;-83
2021/12/03 09:21:20;;;;;;;5.32;1.95;;;;;;;18.86;35.49;100919.34;7312615;19;128933;-81
2021/12/03 09:26:16;;;;;;;7.55;1.88;;;;;;;18.86;35.38;100908.25;7315818;19;131818;-79
2021/12/03 09:28:46;;;;;;;10.48;2.35;;;;;;;18.87;35.37;100912.69;7317998;19;131083;-79
2021/12/03 09:31:16;;;;;;;7.25;2.22;;;;;;;18.87;34.86;100909.94;7314416;19;129000;-81
2021/12/03 09:33:47;;;;;;;5.68;2.00;;;;;;;18.87;34.78;100904.38;7318680;19;129189;-79
2021/12/03 09:36:14;;;;;;;9.18;1.75;;;;;;;18.85;34.80;100901.88;7316096;19;132063;-81
2021/12/03 09:38:41;;;;;;;9.68;2.30;;;;;;;18.87;35.00;100904.38;7318235;19;131347;-81
2021/12/03 09:41:11;;;;;;;9.30;1.92;;;;;;;18.85;34.64;100895.47;7317411;19;130453;-79
2021/12/03 09:43:41;;;;;;;9.50;2.20;;;;;;;18.84;34.99;100902.09;7319034;19;129277;-81
2021/12/03 09:51:05;;;;;;;10.95;2.15;;;;;;;18.81;34.88;100892.38;7314934;19;130341;-82
2021/12/03 09:54:04;;;;;;;6.75;2.10;;;;;;;18.79;34.41;100880.69;7315058;19;129063;-79
2021/12/03 09:56:18;;;;;;;10.37;2.50;;;;;;;18.76;34.41;100882.03;7313868;19;135662;-81
2021/12/03 09:59:47;;;;;;;7.60;1.75;;;;;;;18.74;34.46;100875.88;7313768;19;132363;-82
2021/12/03 10:15:14;;;;;;;5.40;1.55;;;;;;;18.64;34.92;100861.84;7317413;19;128994;-81
2021/12/03 10:17:46;;;;;;;6.53;2.30;;;;;;;18.60;34.46;100863.41;7311010;19;130428;-78
2021/12/03 10:37:05;;;;;;;12.57;1.80;;;;;;;19.30;34.01;100811.44;7310506;19;130527;-79
2021/12/03 10:39:34;;;;;;;6.43;1.73;;;;;;;19.44;33.44;100800.00;7308365;19;131872;-78
2021/12/03 10:45:16;;;;;;;6.05;1.90;;;;;;;19.67;33.42;100785.03;7309295;19;134393;-78
2021/12/03 10:47:54;;;;;;;6.53;2.22;;;;;;;19.75;33.27;100780.97;7310844;19;130776;-77
2021/12/03 10:50:31;;;;;;;8.30;1.80;;;;;;;19.82;32.95;100776.91;7308370;19;131637;-78
2021/12/03 11:31:42;;;;;;;7.07;1.70;;;;;;;19.56;33.36;100706.38;7344742;19;128933;-64
2021/12/03 12:24:45;;;;;;;4.53;1.67;;;;;;;20.90;32.03;100615.13;7346191;19;129042;-65
2021/12/03 12:33:31;;;;;;;7.23;1.80;;;;;;;21.01;31.67;100593.78;7311003;19;132407;-64
2021/12/03 13:28:10;;;;;;;12.25;1.80;;;;;;;20.78;30.53;100526.41;7315324;19;131862;-63
2021/12/03 14:01:46;;;;;;;9.98;1.90;;;;;;;20.37;30.30;100474.16;7315980;19;131057;-64
2021/12/03 14:09:44;;;;;;;5.47;1.33;;;;;;;20.30;30.72;100479.13;7312580;19;131829;-64
2021/12/03 14:46:07;;;;;;;14.88;1.83;;;;;;;20.08;31.43;100465.38;7312513;19;131985;-64
2021/12/03 14:51:13;;;;;;;17.92;1.52;;;;;;;20.08;31.30;100462.59;7312069;19;129188;-65
2021/12/03 14:56:13;;;;;;;12.95;1.27;;;;;;;20.09;31.63;100453.19;7312292;19;131187;-65
2021/12/03 14:58:49;;;;;;;41.70;4.38;;;;;;;20.09;31.77;100447.63;7307298;19;129420;-66
2021/12/03 15:01:26;;;;;;;38.63;3.60;;;;;;;20.09;31.93;100442.06;7311466;19;129198;-64
2021/12/03 15:07:36;;;;;;;12.20;1.70;;;;;;;20.11;31.78;100442.66;7307999;19;131190;-65
2021/12/03 15:09:54;;;;;;;12.13;2.15;;;;;;;20.09;31.73;100431.81;7312363;19;129035;-66
2021/12/03 15:29:19;;;;;;;21.63;2.65;;;;;;;20.06;32.28;100437.91;7307431;19;131217;-65
2021/12/03 16:07:19;;;;;;;17.83;2.38;;;;;;;20.52;31.48;100398.41;7313545;19;129066;-66
2021/12/03 16:20:10;;;;;;;15.25;2.53;;;;;;;20.88;31.13;100369.88;7313573;19;131925;-65
2021/12/03 16:51:54;;;;;;;8.43;1.20;;;;;;;21.18;30.72;100369.09;7311681;19;131469;-67
2021/12/03 16:54:52;;;;;;;7.85;1.40;;;;;;;21.13;30.85;100357.97;7313429;19;133842;-66
2021/12/03 16:57:19;;;;;;;14.10;1.10;;;;;;;21.10;30.33;100361.31;7316988;19;129678;-66
2021/12/03 16:59:47;;;;;;;6.40;0.90;;;;;;;21.06;30.64;100354.63;7314727;19;133385;-66
2021/12/03 17:02:20;;;;;;;10.48;1.33;;;;;;;21.02;30.64;100342.41;7316942;19;131081;-66
2021/12/03 17:15:10;;;;;;;10.75;1.35;;;;;;;20.87;31.18;100310.69;7312229;19;131118;-65
2021/12/03 17:56:04;;;;;;;7.70;2.08;;;;;;;20.45;31.46;100253.31;7306886;19;131127;-65
2021/12/03 17:58:26;;;;;;;8.48;2.00;;;;;;;20.45;31.76;100262.50;7309044;19;132010;-63
2021/12/03 18:01:00;;;;;;;15.07;2.30;;;;;;;20.44;32.11;100254.44;7313304;19;129397;-62
2021/12/03 18:03:35;;;;;;;12.07;1.80;;;;;;;20.46;31.98;100257.78;7310437;19;131358;-62
2021/12/03 18:16:35;;;;;;;8.95;1.90;;;;;;;20.52;32.68;100239.16;7291482;19;130995;-63
2021/12/03 18:46:54;;;;;;;9.07;1.80;;;;;;;20.73;32.64;100228.91;7304107;19;132232;-65
2021/12/03 18:52:09;;;;;;;17.17;1.77;;;;;;;20.79;32.82;100229.78;7309210;19;131362;-64
2021/12/03 18:55:29;;;;;;;13.35;1.85;;;;;;;20.85;33.00;100226.72;7313260;19;131929;-64
2021/12/03 18:57:30;;;;;;;10.27;1.88;;;;;;;20.96;32.88;100233.13;7307611;19;129393;-65